Coeur d'Alene, ID (83814)

10:49 AM PDT on October 23, 2014 (GMT -0700)
Downtown Coeur d'Alene | Change Station
CLOSE
Current Station
Personal Weather Station
Location: Coeur d'Alene, ID
Elevation: 2175 ft
Nearby Weather Stations

Elev 2175 ft 47.67 °N, 116.79 °W | Updated 9 minutes ago

Rain
Rain
52.2 °F
Feels Like 52.2 °F
N
6.9
Wind Variable Wind from SSE
Gusts 7.6 mph

Today
High -- | Low -- °F
--% Chance of Precip.
Yesterday
High -- | Low -- °F
Precip. -- in
7:17 AM 5:44 PM
Waning Crescent, 0% visible
Pressure 29.79 in
Visibility 10.0 miles
Clouds Few 3500 ft
Scattered Clouds 4300 ft
Mostly Cloudy 5000 ft
Dew Point 52 °F
Humidity 98%
Rainfall 0.22 in
Snow Depth Not available.
UV 1 out of 12
Pollen .40 out of 12
Air Quality Not available.
Flu Activity Sporadic
METAR KCOE 231735Z AUTO 16008KT 10SM FEW035 SCT043 BKN050 11/09 A2979 RMK AO1 P0002

More Conditions Fewer Conditions

Pressure 29.79 in
Visibility 10.0 miles
Clouds Few 3500 ft
Scattered Clouds 4300 ft
Mostly Cloudy 5000 ft
Dew Point 52 °F
Humidity 98%
Rainfall 0.22 in
Snow Depth Not available.
UV 1 out of 12
Pollen .40 out of 12
Air Quality Not available.
Flu Activity Sporadic
METAR KCOE 231735Z AUTO 16008KT 10SM FEW035 SCT043 BKN050 11/09 A2979 RMK AO1 P0002

More Conditions Fewer Conditions

10-Day Weather Forecast

Almanac

Astronomy

Oct. 23, 2014 Rise Set
Actual Time 7:17 AM PDT 5:44 PM PDT
Civil Twilight 6:46 AM PDT 6:15 PM PDT
Nautical Twilight 6:10 AM PDT 6:51 PM PDT
Astronomical Twilight 5:34 AM PDT 7:27 PM PDT
Moon 7:00 AM PDT 5:48 PM PDT
Length of Visible Light 11h 29m
Length of Day
10h 26m
Tomorrow will be 3m 15s shorter.
Waning Crescent, 0% of the Moon is Illuminated
Today
Waning Crescent
Oct 23
New
Oct 30
First Quarter
Nov 6
Full
Nov 14
Last Quarter

Today's Extremes

State Highs State Lows

Community

WunderPhotos

Upload Photos

1,764,322 photos uploaded!

WunderBlogs® & News

By Dr. Jeff Masters
Director of Meteorology, Weather Underground
By Kari Strenfel
Meteorologist, Weather Underground
By Christopher C. Burt
Weather Historian, Weather Underground
October 23, 2014
October 23, 2014
October 23, 2014

Nearby

Snow Depth

Station Depth Elevation
Mosquito Ridge 0 in 5200 ft
Mica Creek 2 in 4750 ft
Humboldt Gulch 1 in 4250 ft
Schweitzer Basin 0 in 6090 ft
Lookout 0 in 5140 ft

Earthquake Activity

City Distance Mag. Time & Date
No recent earthquake activity has been reported nearby.
Minimum magnitude displayed is 2.5.

Coastal Water Temperatures

Place Temperature
No Stations Reporting

Nearby Weather Stations